createdAt,value
2019-05-11T00:02:22.875Z,21.67
2019-05-11T00:04:53.305Z,19.97
2019-05-11T00:07:23.705Z,21.87
2019-05-11T00:09:58.152Z,22.73
2019-05-11T00:12:26.230Z,21.57
2019-05-11T00:14:57.635Z,23.63
2019-05-11T00:17:28.073Z,24.57
2019-05-11T00:19:58.769Z,25.30
2019-05-11T00:22:29.457Z,26.57
2019-05-11T00:24:59.899Z,25.63
2019-05-11T00:27:30.304Z,26.63
2019-05-11T00:30:01.083Z,26.87
2019-05-11T00:32:31.697Z,26.57
2019-05-11T00:35:02.313Z,26.23
2019-05-11T00:37:33.745Z,23.80
2019-05-11T00:40:13.760Z,24.50
2019-05-11T00:42:37.563Z,22.77
2019-05-11T00:45:09.102Z,24.60
2019-05-11T00:47:39.499Z,23.53
2019-05-11T00:50:10.001Z,25.50
2019-05-11T00:52:40.442Z,27.13
2019-05-11T00:55:10.951Z,26.23
2019-05-11T00:57:41.388Z,27.23
2019-05-11T01:00:12.095Z,24.90
2019-05-11T01:02:42.537Z,25.00
2019-05-11T01:05:13.024Z,24.40
2019-05-11T01:07:43.516Z,23.67
2019-05-11T01:10:23.759Z,24.90
2019-05-11T01:12:46.296Z,24.70
2019-05-11T01:15:16.929Z,24.07
2019-05-11T01:17:47.372Z,22.87
2019-05-11T01:20:18.763Z,21.67
2019-05-11T01:22:49.293Z,21.97
2019-05-11T01:25:20.650Z,21.63
2019-05-11T01:27:51.117Z,22.73
2019-05-11T01:30:21.680Z,22.30
2019-05-11T01:32:52.106Z,21.50
2019-05-11T01:35:22.568Z,23.13
2019-05-11T01:37:53.003Z,21.03
2019-05-11T01:40:23.390Z,22.73
2019-05-11T01:42:54.781Z,21.20
2019-05-11T01:45:25.177Z,21.10
2019-05-11T01:47:55.628Z,19.63
2019-05-11T01:50:26.131Z,19.63
2019-05-11T01:52:56.575Z,18.80
2019-05-11T01:55:26.963Z,20.53
2019-05-11T01:57:57.396Z,17.13
2019-05-11T02:00:27.851Z,20.20
2019-05-11T02:02:58.583Z,25.63
2019-05-11T02:05:30.735Z,27.03
2019-05-11T02:08:02.628Z,26.40
2019-05-11T02:10:33.157Z,31.80
2019-05-11T02:13:03.902Z,29.00
2019-05-11T02:15:34.513Z,26.33
2019-05-11T02:18:04.939Z,31.27
2019-05-11T02:20:35.371Z,34.93
2019-05-11T02:23:06.120Z,36.77
2019-05-11T02:25:36.507Z,35.97
2019-05-11T02:28:06.933Z,49.63
2019-05-11T02:30:37.386Z,47.27
2019-05-11T02:33:07.914Z,46.60
2019-05-11T02:35:38.305Z,51.00
2019-05-11T02:38:08.742Z,48.93
2019-05-11T02:40:39.221Z,47.70
2019-05-11T02:43:09.873Z,49.93
2019-05-11T02:45:42.879Z,48.20
2019-05-11T02:48:13.308Z,41.93
2019-05-11T02:50:45.139Z,42.77
2019-05-11T02:53:15.909Z,42.90
2019-05-11T02:55:47.931Z,44.17
2019-05-11T02:58:18.393Z,41.57
2019-05-11T03:00:50.380Z,39.40
2019-05-11T03:03:20.817Z,38.40
2019-05-11T03:05:51.215Z,42.20
2019-05-11T03:08:21.640Z,42.17
2019-05-11T03:10:52.036Z,39.73
2019-05-11T03:13:22.543Z,37.93
2019-05-11T03:15:53.008Z,38.70
2019-05-11T03:18:23.442Z,38.67
2019-05-11T03:20:53.844Z,36.73
2019-05-11T03:23:24.364Z,36.73
2019-05-11T03:25:54.811Z,38.43
2019-05-11T03:28:25.241Z,41.33
2019-05-11T03:30:55.627Z,40.00
2019-05-11T03:33:26.141Z,42.57
2019-05-11T03:35:56.607Z,40.73
2019-05-11T03:38:27.040Z,41.93
2019-05-11T03:40:57.434Z,44.20
2019-05-11T03:43:28.100Z,41.43
2019-05-11T03:45:58.496Z,36.67
2019-05-11T03:48:28.972Z,36.47
2019-05-11T03:50:59.375Z,33.93
2019-05-11T03:53:29.810Z,32.10
2019-05-11T03:56:00.213Z,28.73
2019-05-11T03:58:30.655Z,28.00
2019-05-11T04:01:01.141Z,24.63
2019-05-11T04:03:33.264Z,25.47
2019-05-11T04:06:03.661Z,24.43
2019-05-11T04:08:34.101Z,23.10
2019-05-11T04:11:04.757Z,22.60
2019-05-11T04:13:35.209Z,20.93
2019-05-11T04:16:05.674Z,20.73
2019-05-11T04:18:36.186Z,21.37
2019-05-11T04:21:06.621Z,21.23
2019-05-11T04:23:37.052Z,22.10
2019-05-11T04:26:08.440Z,20.17
2019-05-11T04:28:38.951Z,21.30
2019-05-11T04:31:09.435Z,19.13
2019-05-11T04:33:39.880Z,18.43
2019-05-11T04:36:10.301Z,17.70
2019-05-11T04:38:40.736Z,16.67
2019-05-11T04:41:12.424Z,16.93
2019-05-11T04:43:42.947Z,16.13
2019-05-11T04:46:13.343Z,15.43
2019-05-11T04:48:43.787Z,13.93
2019-05-11T04:51:14.780Z,15.40
2019-05-11T04:53:45.209Z,14.00
2019-05-11T04:56:15.601Z,14.33
2019-05-11T04:58:46.099Z,14.20
2019-05-11T05:01:16.561Z,12.67
2019-05-11T05:03:53.420Z,13.07
2019-05-11T05:06:24.377Z,13.20
2019-05-11T05:08:51.267Z,12.87
2019-05-11T05:11:21.701Z,13.57
2019-05-11T05:13:53.630Z,12.63
2019-05-11T05:16:24.272Z,12.77
2019-05-11T05:18:54.722Z,12.07
2019-05-11T05:21:25.160Z,11.03
2019-05-11T05:23:56.527Z,13.37
2019-05-11T05:26:26.960Z,11.50
2019-05-11T05:28:57.356Z,11.90
2019-05-11T05:31:28.069Z,12.20
2019-05-11T05:34:01.390Z,10.40
2019-05-11T05:36:31.046Z,10.97
2019-05-11T05:39:01.450Z,11.73
2019-05-11T05:41:31.958Z,12.13
2019-05-11T05:44:02.815Z,11.77
2019-05-11T05:46:33.270Z,11.40
2019-05-11T05:49:03.673Z,11.50
2019-05-11T05:51:34.342Z,10.30
2019-05-11T05:54:04.890Z,10.07
2019-05-11T05:56:35.336Z,11.47
2019-05-11T05:59:05.734Z,13.73
2019-05-11T06:01:36.226Z,13.63
2019-05-11T06:04:06.691Z,11.80
2019-05-11T06:06:37.137Z,11.23
2019-05-11T06:09:07.877Z,10.30
2019-05-11T06:11:38.328Z,10.50
2019-05-11T06:14:08.791Z,10.97
2019-05-11T06:16:39.247Z,10.73
2019-05-11T06:19:09.700Z,11.80
2019-05-11T06:21:40.212Z,13.00
2019-05-11T06:24:10.614Z,11.03
2019-05-11T06:26:41.057Z,10.20
2019-05-11T06:29:11.454Z,10.00
2019-05-11T06:31:41.888Z,10.53
2019-05-11T06:34:12.289Z,11.60
2019-05-11T06:36:42.731Z,10.73
2019-05-11T06:39:13.132Z,10.40
2019-05-11T06:41:43.658Z,10.57
2019-05-11T06:44:14.045Z,8.90
2019-05-11T06:46:45.454Z,8.50
2019-05-11T06:49:15.984Z,9.53
2019-05-11T06:51:47.018Z,9.00
2019-05-11T06:54:17.427Z,10.10
2019-05-11T06:56:47.950Z,11.57
2019-05-11T06:59:18.347Z,11.43
2019-05-11T07:01:48.843Z,9.60
2019-05-11T07:04:19.244Z,8.27
2019-05-11T07:06:50.270Z,8.00
2019-05-11T07:09:20.730Z,10.63
2019-05-11T07:11:51.191Z,14.10
2019-05-11T07:14:21.751Z,12.13
2019-05-11T07:16:53.183Z,10.10
2019-05-11T07:19:23.743Z,9.87
2019-05-11T07:21:54.723Z,9.60
2019-05-11T07:24:25.125Z,8.80
2019-05-11T07:26:55.717Z,7.20
2019-05-11T07:29:26.240Z,7.30
2019-05-11T07:32:00.660Z,6.17
2019-05-11T07:34:29.969Z,6.13
2019-05-11T07:37:00.476Z,6.37
2019-05-11T07:39:30.862Z,5.47
2019-05-11T07:42:01.338Z,5.63
2019-05-11T07:44:37.916Z,6.33
2019-05-11T07:47:03.895Z,5.70
2019-05-11T07:49:34.282Z,5.80
2019-05-11T07:52:04.725Z,5.77
2019-05-11T07:54:35.184Z,6.27
2019-05-11T07:57:07.772Z,6.13
2019-05-11T07:59:38.296Z,6.00
2019-05-11T08:02:09.050Z,6.27
2019-05-11T08:04:39.444Z,5.80
2019-05-11T08:07:09.880Z,5.90
2019-05-11T08:09:40.269Z,4.90
2019-05-11T08:12:10.708Z,5.90
2019-05-11T08:14:56.604Z,8.80
2019-05-11T08:17:13.305Z,7.10
2019-05-11T08:19:43.740Z,7.13
2019-05-11T08:22:14.180Z,6.13
2019-05-11T08:24:44.575Z,5.90
2019-05-11T08:27:15.039Z,7.10
2019-05-11T08:29:45.500Z,7.60
2019-05-11T08:32:18.164Z,6.83
2019-05-11T08:34:49.087Z,6.80
2019-05-11T08:37:19.687Z,6.33
2019-05-11T08:39:50.233Z,6.47
2019-05-11T08:42:21.924Z,8.00
2019-05-11T08:44:52.318Z,6.70
2019-05-11T08:47:22.773Z,7.23
2019-05-11T08:49:53.389Z,6.07
2019-05-11T08:52:23.833Z,5.43
2019-05-11T08:54:54.222Z,4.07
2019-05-11T08:57:24.675Z,4.27
2019-05-11T08:59:55.063Z,5.17
2019-05-11T09:02:27.637Z,7.13
2019-05-11T09:04:58.918Z,7.87
2019-05-11T09:07:29.551Z,5.73
2019-05-11T09:10:01.045Z,5.57
2019-05-11T09:12:31.540Z,4.47
2019-05-11T09:15:02.041Z,4.30
2019-05-11T09:17:33.505Z,4.27
2019-05-11T09:20:05.772Z,4.13
2019-05-11T09:22:38.124Z,5.13
2019-05-11T09:25:11.052Z,4.37
2019-05-11T09:27:43.425Z,4.33
2019-05-11T09:30:13.981Z,4.33
2019-05-11T09:32:44.449Z,5.23
2019-05-11T09:35:15.125Z,5.23
2019-05-11T09:37:45.588Z,6.63
2019-05-11T09:40:18.045Z,5.60
2019-05-11T09:42:48.257Z,6.30
2019-05-11T09:45:19.000Z,6.50
2019-05-11T09:47:49.470Z,8.03
2019-05-11T09:50:20.045Z,6.40
2019-05-11T09:52:50.431Z,6.40
2019-05-11T09:55:20.868Z,7.47
2019-05-11T09:57:51.261Z,6.93
2019-05-11T10:00:22.206Z,7.20
2019-05-11T10:02:52.608Z,6.23
2019-05-11T10:05:23.048Z,6.00
2019-05-11T10:07:53.437Z,6.23
2019-05-11T10:10:23.872Z,6.93
2019-05-11T10:12:54.330Z,5.87
2019-05-11T10:15:24.776Z,6.33
2019-05-11T10:17:55.172Z,7.03
2019-05-11T10:20:25.615Z,6.00
2019-05-11T10:22:57.958Z,6.30
2019-05-11T10:25:28.835Z,5.73
2019-05-11T10:27:59.447Z,4.63
2019-05-11T10:30:29.910Z,4.33
2019-05-11T10:33:00.351Z,4.27
2019-05-11T10:35:30.930Z,3.60
2019-05-11T10:38:01.362Z,3.80
2019-05-11T10:40:31.784Z,3.73
2019-05-11T10:43:02.466Z,4.57
2019-05-11T10:45:33.070Z,3.70
2019-05-11T10:48:03.463Z,3.63
2019-05-11T10:50:33.952Z,4.10
2019-05-11T10:53:04.757Z,4.77
2019-05-11T10:55:35.197Z,4.27
2019-05-11T10:58:05.647Z,4.80
2019-05-11T11:00:38.635Z,4.07
2019-05-11T11:03:08.644Z,4.60
2019-05-11T11:05:39.117Z,5.13
2019-05-11T11:08:09.514Z,4.63
2019-05-11T11:10:39.939Z,5.23
2019-05-11T11:13:10.342Z,3.80
2019-05-11T11:15:40.771Z,4.00
2019-05-11T11:18:11.162Z,3.30
2019-05-11T11:20:41.598Z,3.33
2019-05-11T11:23:12.091Z,3.03
2019-05-11T11:25:42.526Z,3.70
2019-05-11T11:28:12.922Z,3.30
2019-05-11T11:30:43.365Z,3.67
2019-05-11T11:33:13.751Z,3.40
2019-05-11T11:35:44.186Z,3.60
2019-05-11T11:38:14.580Z,3.67
2019-05-11T11:40:45.012Z,3.80
2019-05-11T11:43:17.889Z,5.43
2019-05-11T11:45:48.460Z,4.20
2019-05-11T11:48:19.131Z,4.90
2019-05-11T11:50:50.595Z,4.30
2019-05-11T11:53:20.982Z,6.17
2019-05-11T11:55:51.405Z,4.97
2019-05-11T11:58:23.928Z,4.60
2019-05-11T12:00:53.923Z,5.03
2019-05-11T12:03:27.542Z,3.63
2019-05-11T12:05:58.134Z,3.43
2019-05-11T12:08:28.930Z,3.40
2019-05-11T12:10:59.683Z,3.97
2019-05-11T12:13:30.079Z,3.70
2019-05-11T12:16:00.584Z,4.50
2019-05-11T12:18:30.977Z,4.43
2019-05-11T12:21:01.627Z,4.20
2019-05-11T12:23:32.063Z,3.87
2019-05-11T12:26:02.556Z,3.87
2019-05-11T12:28:32.945Z,4.00
2019-05-11T12:31:03.688Z,4.93
2019-05-11T12:33:34.183Z,3.87
2019-05-11T12:36:04.628Z,3.40
2019-05-11T12:38:35.263Z,3.90
2019-05-11T12:41:08.074Z,3.10
2019-05-11T12:43:38.247Z,3.10
2019-05-11T12:46:09.012Z,2.70
2019-05-11T12:48:39.496Z,3.20
2019-05-11T12:51:10.018Z,2.80
2019-05-11T12:53:40.454Z,2.93
2019-05-11T12:56:12.707Z,3.23
2019-05-11T12:58:43.385Z,3.60
2019-05-11T13:01:13.766Z,3.23
2019-05-11T13:03:44.446Z,3.07
2019-05-11T13:06:18.808Z,3.40
2019-05-11T13:08:48.686Z,3.90
2019-05-11T13:11:20.738Z,3.20
2019-05-11T13:13:52.733Z,2.83
2019-05-11T13:16:24.339Z,2.50
2019-05-11T13:18:54.822Z,2.33
2019-05-11T13:21:25.344Z,3.03
2019-05-11T13:23:57.726Z,2.70
2019-05-11T13:26:28.491Z,2.40
2019-05-11T13:28:58.978Z,2.70
2019-05-11T13:31:30.382Z,2.30
2019-05-11T13:34:00.816Z,2.57
2019-05-11T13:36:31.497Z,2.50
2019-05-11T13:39:02.160Z,2.07
2019-05-11T13:41:32.550Z,2.03
2019-05-11T13:44:03.069Z,2.30
2019-05-11T13:46:33.601Z,2.30
2019-05-11T13:49:05.258Z,2.00
2019-05-11T13:51:35.654Z,2.47
2019-05-11T13:54:07.930Z,2.60
2019-05-11T13:56:38.239Z,2.80
2019-05-11T13:59:10.658Z,2.40
2019-05-11T14:01:42.899Z,2.47
2019-05-11T14:04:14.924Z,2.63
2019-05-11T14:06:45.473Z,2.13
2019-05-11T14:09:18.433Z,2.50
2019-05-11T14:11:48.741Z,2.13
2019-05-11T14:14:19.254Z,1.73
2019-05-11T14:16:50.988Z,2.40
2019-05-11T14:19:21.809Z,2.20
2019-05-11T14:21:52.308Z,1.83
2019-05-11T14:24:22.739Z,2.33
2019-05-11T14:26:53.135Z,1.90
2019-05-11T14:29:23.677Z,2.13
2019-05-11T14:31:54.471Z,2.30
2019-05-11T14:34:25.023Z,2.10
2019-05-11T14:36:55.490Z,2.10
2019-05-11T14:39:27.981Z,1.90
2019-05-11T14:41:59.545Z,1.40
2019-05-11T14:44:31.280Z,1.90
2019-05-11T14:47:01.698Z,1.93
2019-05-11T14:49:33.896Z,2.10
2019-05-11T14:52:04.411Z,2.07
2019-05-11T14:54:38.032Z,2.03
2019-05-11T14:57:08.149Z,1.50
2019-05-11T14:59:38.703Z,1.80
2019-05-11T15:02:28.640Z,1.93
2019-05-11T15:04:59.129Z,1.97
2019-05-11T15:07:29.587Z,1.90
2019-05-11T15:10:00.020Z,2.07
2019-05-11T15:12:30.496Z,1.93
2019-05-11T15:15:01.009Z,1.70
2019-05-11T15:17:31.639Z,2.37
2019-05-11T15:20:02.064Z,2.00
2019-05-11T15:22:32.630Z,1.87
2019-05-11T15:25:03.199Z,1.50
2019-05-11T15:27:33.591Z,1.57
2019-05-11T15:30:04.998Z,1.43
2019-05-11T15:32:37.461Z,1.73
2019-05-11T15:35:08.123Z,1.70
2019-05-11T15:37:38.847Z,1.60
2019-05-11T15:40:15.683Z,1.50
2019-05-11T15:42:48.626Z,1.20
2019-05-11T15:45:19.988Z,1.93
2019-05-11T15:47:50.609Z,1.50
2019-05-11T15:50:21.582Z,2.03
2019-05-11T15:52:51.970Z,1.93
2019-05-11T15:55:22.476Z,1.77
2019-05-11T15:57:52.869Z,1.70
2019-05-11T16:00:23.434Z,1.70
2019-05-11T16:02:53.896Z,1.87
2019-05-11T16:05:24.404Z,1.80
2019-05-11T16:08:01.421Z,1.80
2019-05-11T16:10:28.311Z,1.87
2019-05-11T16:12:58.787Z,1.57
2019-05-11T16:15:29.226Z,1.80
2019-05-11T16:17:59.668Z,1.50
2019-05-11T16:20:30.097Z,1.70
2019-05-11T16:23:02.447Z,1.60
2019-05-11T16:25:32.678Z,1.87
2019-05-11T16:28:03.080Z,1.80
2019-05-11T16:30:33.962Z,1.93
2019-05-11T16:33:04.465Z,2.10
2019-05-11T16:35:35.031Z,2.13
2019-05-11T16:38:07.766Z,2.10
2019-05-11T16:40:38.693Z,2.33
2019-05-11T16:43:10.159Z,2.50
2019-05-11T16:45:40.588Z,2.13
2019-05-11T16:48:11.099Z,2.30
2019-05-11T16:50:41.493Z,2.30
2019-05-11T16:53:12.006Z,2.43
2019-05-11T16:55:42.394Z,2.33
2019-05-11T16:58:12.821Z,2.43
2019-05-11T17:00:43.227Z,2.27
2019-05-11T17:03:13.716Z,2.47
2019-05-11T17:05:44.104Z,2.10
2019-05-11T17:08:14.539Z,2.47
2019-05-11T17:10:48.054Z,2.57
2019-05-11T17:13:18.601Z,2.50
2019-05-11T17:15:48.991Z,2.50
2019-05-11T17:18:19.418Z,2.40
2019-05-11T17:20:50.140Z,2.63
2019-05-11T17:23:20.566Z,2.30
2019-05-11T17:25:50.975Z,3.70
2019-05-11T17:28:21.411Z,2.70
2019-05-11T17:30:51.843Z,2.83
2019-05-11T17:33:22.327Z,3.00
2019-05-11T17:35:52.715Z,3.17
2019-05-11T17:38:23.159Z,3.23
2019-05-11T17:40:53.631Z,2.80
2019-05-11T17:43:24.055Z,2.93
2019-05-11T17:45:54.579Z,3.43
2019-05-11T17:48:25.083Z,4.37
2019-05-11T17:50:55.506Z,3.17
2019-05-11T17:53:25.935Z,4.00
2019-05-11T17:55:57.871Z,5.63
2019-05-11T17:58:28.463Z,5.60
2019-05-11T18:00:59.927Z,5.47
2019-05-11T18:03:30.988Z,5.97
2019-05-11T18:06:01.383Z,4.63
2019-05-11T18:08:32.011Z,4.87
2019-05-11T18:11:02.479Z,4.13
2019-05-11T18:13:33.184Z,4.03
2019-05-11T18:16:03.877Z,4.43
2019-05-11T18:18:34.312Z,3.27
2019-05-11T18:21:04.708Z,3.80
2019-05-11T18:23:35.150Z,3.97
2019-05-11T18:26:05.591Z,3.30
2019-05-11T18:28:37.839Z,3.23
2019-05-11T18:31:08.103Z,3.57
2019-05-11T18:33:38.538Z,3.43
2019-05-11T18:36:08.926Z,5.77
2019-05-11T18:38:39.350Z,5.70
2019-05-11T18:41:09.750Z,6.50
2019-05-11T18:43:40.205Z,8.00
2019-05-11T18:46:10.593Z,7.97
2019-05-11T18:48:41.228Z,10.73
2019-05-11T18:51:11.620Z,12.93
2019-05-11T18:53:42.086Z,12.57
2019-05-11T18:56:13.532Z,13.60
2019-05-11T18:58:43.994Z,12.67
2019-05-11T19:01:14.384Z,11.83
2019-05-11T19:03:44.837Z,11.77
2019-05-11T19:06:15.235Z,12.17
2019-05-11T19:08:47.718Z,11.13
2019-05-11T19:11:18.234Z,11.03
2019-05-11T19:13:49.877Z,11.33
2019-05-11T19:16:20.281Z,11.03
2019-05-11T19:18:50.723Z,11.43
2019-05-11T19:21:21.121Z,11.13
2019-05-11T19:23:51.554Z,11.67
2019-05-11T19:26:22.426Z,13.70
2019-05-11T19:28:53.019Z,11.87
2019-05-11T19:31:23.491Z,10.13
2019-05-11T19:33:58.692Z,11.47
2019-05-11T19:36:30.832Z,10.67
2019-05-11T19:39:01.615Z,10.70
2019-05-11T19:41:33.529Z,11.77
2019-05-11T19:44:05.424Z,11.97
2019-05-11T19:46:38.583Z,12.37
2019-05-11T19:49:09.754Z,11.67
2019-05-11T19:51:42.596Z,11.67
2019-05-11T19:54:12.484Z,12.63
2019-05-11T19:56:42.999Z,13.00
2019-05-11T19:59:13.614Z,13.03
2019-05-11T20:01:44.051Z,12.20
2019-05-11T20:04:14.517Z,12.93
2019-05-11T20:06:45.036Z,13.07
2019-05-11T20:09:15.518Z,13.50
2019-05-11T20:11:47.620Z,14.80
2019-05-11T20:14:18.195Z,14.30
2019-05-11T20:16:48.629Z,13.50
2019-05-11T20:19:19.105Z,12.60
2019-05-11T20:21:49.568Z,11.87
2019-05-11T20:24:20.074Z,11.77
2019-05-11T20:26:50.518Z,13.43
2019-05-11T20:29:20.914Z,14.30
2019-05-11T20:31:52.464Z,14.80
2019-05-11T20:34:22.934Z,18.53
2019-05-11T20:36:53.523Z,16.87
2019-05-11T20:39:24.056Z,22.03
2019-05-11T20:41:54.503Z,21.73
2019-05-11T20:44:24.977Z,18.73
2019-05-11T20:46:57.527Z,18.63
2019-05-11T20:49:28.196Z,16.83
2019-05-11T20:51:58.927Z,16.87
2019-05-11T20:54:29.399Z,16.00
2019-05-11T20:56:59.875Z,14.07
2019-05-11T20:59:30.456Z,14.17
2019-05-11T21:02:01.066Z,13.13
2019-05-11T21:04:31.670Z,12.63
2019-05-11T21:07:02.628Z,12.07
2019-05-11T21:09:33.514Z,11.00
2019-05-11T21:12:03.987Z,9.07
2019-05-11T21:14:34.689Z,9.67
2019-05-11T21:17:05.418Z,8.30
2019-05-11T21:19:35.814Z,8.67
2019-05-11T21:22:08.745Z,8.50
2019-05-11T21:24:40.301Z,8.60
2019-05-11T21:27:13.765Z,8.63
2019-05-11T21:29:49.124Z,9.10
2019-05-11T21:32:19.962Z,9.53
2019-05-11T21:34:50.437Z,9.40
2019-05-11T21:37:20.954Z,9.23
2019-05-11T21:39:53.747Z,9.07
2019-05-11T21:42:25.266Z,9.20
2019-05-11T21:45:01.426Z,9.00
2019-05-11T21:47:41.925Z,8.87
2019-05-11T21:50:19.211Z,9.10
2019-05-11T21:52:54.259Z,8.80
2019-05-11T21:55:24.824Z,9.33
2019-05-11T21:57:59.819Z,9.67
2019-05-11T22:00:30.792Z,8.83
2019-05-11T22:03:03.289Z,8.10
2019-05-11T22:05:34.490Z,8.53
2019-05-11T22:08:05.548Z,8.53
2019-05-11T22:10:38.351Z,9.07
2019-05-11T22:13:08.444Z,8.20
2019-05-11T22:15:38.842Z,8.27
2019-05-11T22:18:10.037Z,8.77
2019-05-11T22:20:41.611Z,8.60
2019-05-11T22:23:12.387Z,8.33
2019-05-11T22:25:42.975Z,8.67
2019-05-11T22:28:13.421Z,8.13
2019-05-11T22:30:43.903Z,8.37
2019-05-11T22:33:14.343Z,8.60
2019-05-11T22:35:44.801Z,8.00
2019-05-11T22:38:15.285Z,7.53
2019-05-11T22:40:45.740Z,8.43
2019-05-11T22:43:18.188Z,8.83
2019-05-11T22:45:48.622Z,8.53
2019-05-11T22:48:19.178Z,8.43
2019-05-11T22:50:50.667Z,8.30
2019-05-11T22:53:21.285Z,9.23
2019-05-11T22:55:51.748Z,9.40
2019-05-11T22:58:22.175Z,8.47
2019-05-11T23:00:52.572Z,9.40
2019-05-11T23:03:23.084Z,8.40
2019-05-11T23:05:53.479Z,9.10
2019-05-11T23:08:23.913Z,9.00
2019-05-11T23:10:54.349Z,8.43
2019-05-11T23:13:24.779Z,8.37
2019-05-11T23:15:55.219Z,7.93
2019-05-11T23:18:25.618Z,9.77
2019-05-11T23:20:58.210Z,10.07
2019-05-11T23:23:28.407Z,9.00
2019-05-11T23:25:58.944Z,9.10
2019-05-11T23:28:29.378Z,8.20
2019-05-11T23:31:02.632Z,8.47
2019-05-11T23:33:33.140Z,8.07
2019-05-11T23:36:03.575Z,8.60
2019-05-11T23:38:34.132Z,7.27
2019-05-11T23:41:04.619Z,8.30
2019-05-11T23:43:35.018Z,7.63
2019-05-11T23:46:05.452Z,7.13
2019-05-11T23:48:38.381Z,7.87
2019-05-11T23:51:08.779Z,6.93
2019-05-11T23:53:39.274Z,6.87
2019-05-11T23:56:09.705Z,7.83
2019-05-11T23:58:40.100Z,6.70
